Aviation Digital Data Service (ADDS)

Output produced by METARs form (1414 UTC 23 March 2017)
found at http://www.aviationweather.gov/adds/metars/
 
KILG 231351Z 01008KT 10SM CLR 00/M13 A3065 RMK AO2 SLP381 T00001133
KILG 231124Z 2312/2412 35008KT P6SM SKC 
     FM231900 29008KT P6SM SKC 
     FM232300 VRB04KT P6SM FEW250